sensor_id;sensor_type;location;lat;lon;timestamp;P1;durP1;ratioP1;P2;durP2;ratioP2
13197;SDS011;6664;52.514;13.440;2022-07-21T00:00:28;6.57;;;4.27;;
13197;SDS011;6664;52.514;13.440;2022-07-21T00:02:56;4.57;;;4.07;;
13197;SDS011;6664;52.514;13.440;2022-07-21T00:05:25;11.40;;;5.83;;
13197;SDS011;6664;52.514;13.440;2022-07-21T00:07:54;5.87;;;4.70;;
13197;SDS011;6664;52.514;13.440;2022-07-21T00:10:22;7.13;;;4.57;;
13197;SDS011;6664;52.514;13.440;2022-07-21T00:12:53;7.33;;;4.57;;
13197;SDS011;6664;52.514;13.440;2022-07-21T00:15:23;7.30;;;4.77;;
13197;SDS011;6664;52.514;13.440;2022-07-21T00:17:54;5.50;;;4.60;;
13197;SDS011;6664;52.514;13.440;2022-07-21T00:20:21;6.83;;;4.67;;
13197;SDS011;6664;52.514;13.440;2022-07-21T00:22:50;4.10;;;3.80;;
13197;SDS011;6664;52.514;13.440;2022-07-21T00:25:17;5.30;;;4.10;;
13197;SDS011;6664;52.514;13.440;2022-07-21T00:27:44;5.37;;;4.50;;
13197;SDS011;6664;52.514;13.440;2022-07-21T00:30:14;10.10;;;5.07;;
13197;SDS011;6664;52.514;13.440;2022-07-21T00:32:41;6.33;;;4.87;;
13197;SDS011;6664;52.514;13.440;2022-07-21T00:35:10;11.40;;;4.40;;
13197;SDS011;6664;52.514;13.440;2022-07-21T00:37:38;8.17;;;4.47;;
13197;SDS011;6664;52.514;13.440;2022-07-21T00:40:06;7.23;;;4.50;;
13197;SDS011;6664;52.514;13.440;2022-07-21T00:42:34;6.77;;;4.43;;
13197;SDS011;6664;52.514;13.440;2022-07-21T00:45:02;4.67;;;3.80;;
13197;SDS011;6664;52.514;13.440;2022-07-21T00:47:31;10.13;;;4.80;;
13197;SDS011;6664;52.514;13.440;2022-07-21T00:49:59;9.53;;;4.83;;
13197;SDS011;6664;52.514;13.440;2022-07-21T00:52:28;6.07;;;4.30;;
13197;SDS011;6664;52.514;13.440;2022-07-21T00:54:55;5.33;;;4.30;;
13197;SDS011;6664;52.514;13.440;2022-07-21T00:57:22;6.70;;;4.33;;
13197;SDS011;6664;52.514;13.440;2022-07-21T00:59:49;5.83;;;4.43;;
13197;SDS011;6664;52.514;13.440;2022-07-21T01:02:16;6.93;;;4.33;;
13197;SDS011;6664;52.514;13.440;2022-07-21T01:04:43;4.93;;;4.43;;
13197;SDS011;6664;52.514;13.440;2022-07-21T01:07:10;7.70;;;4.80;;
13197;SDS011;6664;52.514;13.440;2022-07-21T01:09:37;12.53;;;4.17;;
13197;SDS011;6664;52.514;13.440;2022-07-21T01:12:04;8.27;;;4.67;;
13197;SDS011;6664;52.514;13.440;2022-07-21T01:14:31;7.47;;;4.20;;
13197;SDS011;6664;52.514;13.440;2022-07-21T01:17:02;7.13;;;4.90;;
13197;SDS011;6664;52.514;13.440;2022-07-21T01:19:31;7.33;;;4.80;;
13197;SDS011;6664;52.514;13.440;2022-07-21T01:21:58;7.07;;;4.97;;
13197;SDS011;6664;52.514;13.440;2022-07-21T01:24:25;4.73;;;4.30;;
13197;SDS011;6664;52.514;13.440;2022-07-21T01:26:53;9.60;;;4.30;;
13197;SDS011;6664;52.514;13.440;2022-07-21T01:29:20;6.10;;;5.00;;
13197;SDS011;6664;52.514;13.440;2022-07-21T01:31:48;4.13;;;3.77;;
13197;SDS011;6664;52.514;13.440;2022-07-21T01:34:16;6.63;;;5.10;;
13197;SDS011;6664;52.514;13.440;2022-07-21T01:36:46;7.60;;;5.07;;
13197;SDS011;6664;52.514;13.440;2022-07-21T01:39:13;7.73;;;4.90;;
13197;SDS011;6664;52.514;13.440;2022-07-21T01:41:59;10.70;;;5.20;;
13197;SDS011;6664;52.514;13.440;2022-07-21T01:44:26;10.03;;;5.37;;
13197;SDS011;6664;52.514;13.440;2022-07-21T01:46:55;4.57;;;4.00;;
13197;SDS011;6664;52.514;13.440;2022-07-21T01:49:25;4.90;;;4.40;;
13197;SDS011;6664;52.514;13.440;2022-07-21T01:51:52;11.13;;;4.50;;
13197;SDS011;6664;52.514;13.440;2022-07-21T01:54:19;4.87;;;4.47;;
13197;SDS011;6664;52.514;13.440;2022-07-21T01:56:49;8.47;;;5.07;;
13197;SDS011;6664;52.514;13.440;2022-07-21T01:59:18;4.63;;;4.23;;
13197;SDS011;6664;52.514;13.440;2022-07-21T02:01:45;5.73;;;5.07;;
13197;SDS011;6664;52.514;13.440;2022-07-21T02:04:13;5.93;;;4.90;;
13197;SDS011;6664;52.514;13.440;2022-07-21T02:06:40;3.97;;;3.67;;
13197;SDS011;6664;52.514;13.440;2022-07-21T02:09:10;4.57;;;4.10;;
13197;SDS011;6664;52.514;13.440;2022-07-21T02:11:37;5.00;;;4.20;;
13197;SDS011;6664;52.514;13.440;2022-07-21T02:14:06;7.50;;;4.57;;
13197;SDS011;6664;52.514;13.440;2022-07-21T02:16:33;5.30;;;4.20;;
13197;SDS011;6664;52.514;13.440;2022-07-21T02:19:00;7.33;;;4.40;;
13197;SDS011;6664;52.514;13.440;2022-07-21T02:21:29;5.20;;;4.67;;
13197;SDS011;6664;52.514;13.440;2022-07-21T02:23:56;4.70;;;4.27;;
13197;SDS011;6664;52.514;13.440;2022-07-21T02:26:23;6.70;;;4.27;;
13197;SDS011;6664;52.514;13.440;2022-07-21T02:28:50;6.53;;;5.00;;
13197;SDS011;6664;52.514;13.440;2022-07-21T02:31:17;4.63;;;4.23;;
13197;SDS011;6664;52.514;13.440;2022-07-21T02:33:47;6.77;;;4.33;;
13197;SDS011;6664;52.514;13.440;2022-07-21T02:36:14;12.53;;;4.80;;
13197;SDS011;6664;52.514;13.440;2022-07-21T02:38:43;7.60;;;4.53;;
13197;SDS011;6664;52.514;13.440;2022-07-21T02:41:10;6.60;;;4.37;;
13197;SDS011;6664;52.514;13.440;2022-07-21T02:43:37;8.33;;;4.53;;
13197;SDS011;6664;52.514;13.440;2022-07-21T02:46:06;8.10;;;4.40;;
13197;SDS011;6664;52.514;13.440;2022-07-21T02:48:36;6.70;;;4.60;;
13197;SDS011;6664;52.514;13.440;2022-07-21T02:51:03;5.87;;;4.27;;
13197;SDS011;6664;52.514;13.440;2022-07-21T02:53:33;17.33;;;4.57;;
13197;SDS011;6664;52.514;13.440;2022-07-21T02:56:00;5.43;;;3.87;;
13197;SDS011;6664;52.514;13.440;2022-07-21T02:58:27;15.40;;;4.03;;
13197;SDS011;6664;52.514;13.440;2022-07-21T03:00:57;9.57;;;3.70;;
13197;SDS011;6664;52.514;13.440;2022-07-21T03:03:27;8.00;;;3.40;;
13197;SDS011;6664;52.514;13.440;2022-07-21T03:05:55;6.53;;;3.80;;
13197;SDS011;6664;52.514;13.440;2022-07-21T03:08:25;6.30;;;4.80;;
13197;SDS011;6664;52.514;13.440;2022-07-21T03:10:54;6.93;;;4.50;;
13197;SDS011;6664;52.514;13.440;2022-07-21T03:13:21;6.17;;;3.77;;
13197;SDS011;6664;52.514;13.440;2022-07-21T03:15:50;10.57;;;4.13;;
13197;SDS011;6664;52.514;13.440;2022-07-21T03:18:17;6.10;;;4.70;;
13197;SDS011;6664;52.514;13.440;2022-07-21T03:20:46;5.87;;;3.60;;
13197;SDS011;6664;52.514;13.440;2022-07-21T03:23:13;5.33;;;3.70;;
13197;SDS011;6664;52.514;13.440;2022-07-21T03:25:40;5.07;;;3.63;;
13197;SDS011;6664;52.514;13.440;2022-07-21T03:28:07;6.30;;;3.50;;
13197;SDS011;6664;52.514;13.440;2022-07-21T03:30:35;5.07;;;3.63;;
13197;SDS011;6664;52.514;13.440;2022-07-21T03:33:02;6.23;;;3.83;;
13197;SDS011;6664;52.514;13.440;2022-07-21T03:35:31;5.23;;;3.83;;
13197;SDS011;6664;52.514;13.440;2022-07-21T03:38:04;6.10;;;3.50;;
13197;SDS011;6664;52.514;13.440;2022-07-21T03:40:35;5.47;;;3.50;;
13197;SDS011;6664;52.514;13.440;2022-07-21T03:43:04;7.43;;;3.97;;
13197;SDS011;6664;52.514;13.440;2022-07-21T03:45:33;3.80;;;3.50;;
13197;SDS011;6664;52.514;13.440;2022-07-21T03:48:04;7.30;;;4.43;;
13197;SDS011;6664;52.514;13.440;2022-07-21T03:50:33;7.50;;;4.07;;
13197;SDS011;6664;52.514;13.440;2022-07-21T03:53:04;6.57;;;4.13;;
13197;SDS011;6664;52.514;13.440;2022-07-21T03:55:31;3.80;;;3.50;;
13197;SDS011;6664;52.514;13.440;2022-07-21T03:58:03;4.03;;;3.53;;
13197;SDS011;6664;52.514;13.440;2022-07-21T04:00:39;5.83;;;3.80;;
13197;SDS011;6664;52.514;13.440;2022-07-21T04:03:09;12.03;;;4.40;;
13197;SDS011;6664;52.514;13.440;2022-07-21T04:05:39;7.97;;;3.50;;
13197;SDS011;6664;52.514;13.440;2022-07-21T04:08:08;10.63;;;3.77;;
13197;SDS011;6664;52.514;13.440;2022-07-21T04:10:36;6.43;;;3.50;;
13197;SDS011;6664;52.514;13.440;2022-07-21T04:13:05;5.10;;;3.43;;
13197;SDS011;6664;52.514;13.440;2022-07-21T04:15:34;5.97;;;3.90;;
13197;SDS011;6664;52.514;13.440;2022-07-21T04:18:02;9.20;;;3.50;;
13197;SDS011;6664;52.514;13.440;2022-07-21T04:20:30;11.77;;;3.30;;
13197;SDS011;6664;52.514;13.440;2022-07-21T04:22:57;3.50;;;3.13;;
13197;SDS011;6664;52.514;13.440;2022-07-21T04:25:24;4.27;;;3.77;;
13197;SDS011;6664;52.514;13.440;2022-07-21T04:27:51;3.87;;;3.50;;
13197;SDS011;6664;52.514;13.440;2022-07-21T04:30:22;3.87;;;3.47;;
13197;SDS011;6664;52.514;13.440;2022-07-21T04:32:49;6.87;;;4.07;;
13197;SDS011;6664;52.514;13.440;2022-07-21T04:35:16;11.83;;;4.20;;
13197;SDS011;6664;52.514;13.440;2022-07-21T04:37:46;3.83;;;3.53;;
13197;SDS011;6664;52.514;13.440;2022-07-21T04:40:14;5.57;;;4.13;;
13197;SDS011;6664;52.514;13.440;2022-07-21T04:42:43;5.67;;;3.30;;
13197;SDS011;6664;52.514;13.440;2022-07-21T04:45:14;5.77;;;3.70;;
13197;SDS011;6664;52.514;13.440;2022-07-21T04:47:43;6.67;;;3.80;;
13197;SDS011;6664;52.514;13.440;2022-07-21T04:50:11;3.97;;;3.37;;
13197;SDS011;6664;52.514;13.440;2022-07-21T04:52:41;5.77;;;4.00;;
13197;SDS011;6664;52.514;13.440;2022-07-21T04:55:08;5.50;;;4.00;;
13197;SDS011;6664;52.514;13.440;2022-07-21T04:57:42;5.30;;;3.60;;
13197;SDS011;6664;52.514;13.440;2022-07-21T05:00:15;5.57;;;4.60;;
13197;SDS011;6664;52.514;13.440;2022-07-21T05:02:45;9.27;;;4.43;;
13197;SDS011;6664;52.514;13.440;2022-07-21T05:05:12;5.83;;;4.47;;
13197;SDS011;6664;52.514;13.440;2022-07-21T05:07:40;13.73;;;6.90;;
13197;SDS011;6664;52.514;13.440;2022-07-21T05:10:13;16.37;;;7.17;;
13197;SDS011;6664;52.514;13.440;2022-07-21T05:12:41;14.03;;;7.20;;
13197;SDS011;6664;52.514;13.440;2022-07-21T05:15:09;11.47;;;8.17;;
13197;SDS011;6664;52.514;13.440;2022-07-21T05:17:38;15.03;;;8.73;;
13197;SDS011;6664;52.514;13.440;2022-07-21T05:20:06;15.30;;;8.33;;
13197;SDS011;6664;52.514;13.440;2022-07-21T05:22:33;14.40;;;8.70;;
13197;SDS011;6664;52.514;13.440;2022-07-21T05:25:03;11.83;;;8.03;;
13197;SDS011;6664;52.514;13.440;2022-07-21T05:27:30;10.40;;;7.20;;
13197;SDS011;6664;52.514;13.440;2022-07-21T05:29:57;12.37;;;7.97;;
13197;SDS011;6664;52.514;13.440;2022-07-21T05:32:26;12.00;;;8.37;;
13197;SDS011;6664;52.514;13.440;2022-07-21T05:34:53;13.07;;;8.93;;
13197;SDS011;6664;52.514;13.440;2022-07-21T05:37:20;21.37;;;10.50;;
13197;SDS011;6664;52.514;13.440;2022-07-21T05:39:47;30.43;;;10.30;;
13197;SDS011;6664;52.514;13.440;2022-07-21T05:42:14;17.07;;;10.20;;
13197;SDS011;6664;52.514;13.440;2022-07-21T05:44:41;17.20;;;11.30;;
13197;SDS011;6664;52.514;13.440;2022-07-21T05:47:08;10.23;;;9.10;;
13197;SDS011;6664;52.514;13.440;2022-07-21T05:49:37;22.53;;;11.20;;
13197;SDS011;6664;52.514;13.440;2022-07-21T05:52:06;15.60;;;10.53;;
13197;SDS011;6664;52.514;13.440;2022-07-21T05:54:35;16.40;;;9.80;;
13197;SDS011;6664;52.514;13.440;2022-07-21T05:57:04;16.23;;;10.80;;
13197;SDS011;6664;52.514;13.440;2022-07-21T05:59:31;14.60;;;9.87;;
13197;SDS011;6664;52.514;13.440;2022-07-21T06:01:59;15.73;;;10.40;;
13197;SDS011;6664;52.514;13.440;2022-07-21T06:04:28;15.23;;;10.10;;
13197;SDS011;6664;52.514;13.440;2022-07-21T06:06:55;12.07;;;9.60;;
13197;SDS011;6664;52.514;13.440;2022-07-21T06:09:23;12.30;;;10.40;;
13197;SDS011;6664;52.514;13.440;2022-07-21T06:11:52;12.00;;;10.77;;
13197;SDS011;6664;52.514;13.440;2022-07-21T06:14:19;12.50;;;10.40;;
13197;SDS011;6664;52.514;13.440;2022-07-21T06:16:46;16.47;;;10.40;;
13197;SDS011;6664;52.514;13.440;2022-07-21T06:19:18;14.90;;;9.53;;
13197;SDS011;6664;52.514;13.440;2022-07-21T06:21:45;14.23;;;10.50;;
13197;SDS011;6664;52.514;13.440;2022-07-21T06:24:12;14.70;;;9.80;;
13197;SDS011;6664;52.514;13.440;2022-07-21T06:26:40;15.23;;;10.30;;
13197;SDS011;6664;52.514;13.440;2022-07-21T06:29:08;10.40;;;8.67;;
13197;SDS011;6664;52.514;13.440;2022-07-21T06:31:37;15.20;;;10.27;;
13197;SDS011;6664;52.514;13.440;2022-07-21T06:34:09;16.07;;;9.60;;
13197;SDS011;6664;52.514;13.440;2022-07-21T06:36:36;15.43;;;9.63;;
13197;SDS011;6664;52.514;13.440;2022-07-21T06:39:03;14.87;;;10.10;;
13197;SDS011;6664;52.514;13.440;2022-07-21T06:41:32;11.03;;;8.73;;
13197;SDS011;6664;52.514;13.440;2022-07-21T06:43:58;16.50;;;10.67;;
13197;SDS011;6664;52.514;13.440;2022-07-21T06:46:25;15.80;;;9.53;;
13197;SDS011;6664;52.514;13.440;2022-07-21T06:48:55;14.60;;;9.43;;
13197;SDS011;6664;52.514;13.440;2022-07-21T06:51:22;14.50;;;10.00;;
13197;SDS011;6664;52.514;13.440;2022-07-21T06:53:49;13.17;;;9.10;;
13197;SDS011;6664;52.514;13.440;2022-07-21T06:56:17;12.00;;;9.40;;
13197;SDS011;6664;52.514;13.440;2022-07-21T06:58:47;12.00;;;9.50;;
13197;SDS011;6664;52.514;13.440;2022-07-21T07:01:16;14.33;;;10.73;;
13197;SDS011;6664;52.514;13.440;2022-07-21T07:03:47;24.53;;;11.33;;
13197;SDS011;6664;52.514;13.440;2022-07-21T07:06:17;17.87;;;10.50;;
13197;SDS011;6664;52.514;13.440;2022-07-21T07:08:44;11.50;;;9.40;;
13197;SDS011;6664;52.514;13.440;2022-07-21T07:11:14;12.30;;;9.70;;
13197;SDS011;6664;52.514;13.440;2022-07-21T07:13:40;17.10;;;10.23;;
13197;SDS011;6664;52.514;13.440;2022-07-21T07:16:30;11.60;;;8.40;;
13197;SDS011;6664;52.514;13.440;2022-07-21T07:18:57;12.97;;;9.30;;
13197;SDS011;6664;52.514;13.440;2022-07-21T07:21:24;13.40;;;9.67;;
13197;SDS011;6664;52.514;13.440;2022-07-21T07:23:51;13.17;;;8.93;;
13197;SDS011;6664;52.514;13.440;2022-07-21T07:26:18;12.67;;;9.43;;
13197;SDS011;6664;52.514;13.440;2022-07-21T07:28:48;25.87;;;9.80;;
13197;SDS011;6664;52.514;13.440;2022-07-21T07:31:15;11.73;;;9.63;;
13197;SDS011;6664;52.514;13.440;2022-07-21T07:33:42;12.60;;;9.43;;
13197;SDS011;6664;52.514;13.440;2022-07-21T07:36:11;14.13;;;8.97;;
13197;SDS011;6664;52.514;13.440;2022-07-21T07:38:40;13.03;;;9.30;;
13197;SDS011;6664;52.514;13.440;2022-07-21T07:41:07;13.00;;;8.33;;
13197;SDS011;6664;52.514;13.440;2022-07-21T07:43:34;13.90;;;8.50;;
13197;SDS011;6664;52.514;13.440;2022-07-21T07:46:01;12.50;;;8.20;;
13197;SDS011;6664;52.514;13.440;2022-07-21T07:48:32;13.77;;;9.40;;
13197;SDS011;6664;52.514;13.440;2022-07-21T07:51:01;10.00;;;8.33;;
13197;SDS011;6664;52.514;13.440;2022-07-21T07:53:27;9.60;;;7.90;;
13197;SDS011;6664;52.514;13.440;2022-07-21T07:55:54;11.00;;;8.60;;
13197;SDS011;6664;52.514;13.440;2022-07-21T07:58:23;10.57;;;8.37;;
13197;SDS011;6664;52.514;13.440;2022-07-21T08:00:53;10.20;;;7.70;;
13197;SDS011;6664;52.514;13.440;2022-07-21T08:03:22;11.10;;;9.43;;
13197;SDS011;6664;52.514;13.440;2022-07-21T08:05:53;12.27;;;7.10;;
13197;SDS011;6664;52.514;13.440;2022-07-21T08:08:21;10.07;;;7.13;;
13197;SDS011;6664;52.514;13.440;2022-07-21T08:10:51;11.20;;;7.73;;
13197;SDS011;6664;52.514;13.440;2022-07-21T08:13:18;10.60;;;8.10;;
13197;SDS011;6664;52.514;13.440;2022-07-21T08:15:47;12.13;;;7.93;;
13197;SDS011;6664;52.514;13.440;2022-07-21T08:18:16;10.97;;;7.13;;
13197;SDS011;6664;52.514;13.440;2022-07-21T08:20:44;14.60;;;10.10;;
13197;SDS011;6664;52.514;13.440;2022-07-21T08:23:11;13.57;;;10.60;;
13197;SDS011;6664;52.514;13.440;2022-07-21T08:25:39;22.23;;;8.07;;
13197;SDS011;6664;52.514;13.440;2022-07-21T08:28:07;8.63;;;7.73;;
13197;SDS011;6664;52.514;13.440;2022-07-21T08:30:35;8.67;;;6.90;;
13197;SDS011;6664;52.514;13.440;2022-07-21T08:33:02;10.80;;;7.30;;
13197;SDS011;6664;52.514;13.440;2022-07-21T08:35:29;8.37;;;6.40;;
13197;SDS011;6664;52.514;13.440;2022-07-21T08:37:58;10.83;;;6.70;;
13197;SDS011;6664;52.514;13.440;2022-07-21T08:40:32;11.03;;;6.73;;
13197;SDS011;6664;52.514;13.440;2022-07-21T08:43:04;11.63;;;7.23;;
13197;SDS011;6664;52.514;13.440;2022-07-21T08:45:32;12.53;;;7.10;;
13197;SDS011;6664;52.514;13.440;2022-07-21T08:48:01;11.73;;;7.03;;
13197;SDS011;6664;52.514;13.440;2022-07-21T08:50:32;8.50;;;7.57;;
13197;SDS011;6664;52.514;13.440;2022-07-21T08:53:01;25.80;;;18.90;;
13197;SDS011;6664;52.514;13.440;2022-07-21T08:55:32;12.37;;;8.73;;
13197;SDS011;6664;52.514;13.440;2022-07-21T08:58:01;11.43;;;7.00;;
13197;SDS011;6664;52.514;13.440;2022-07-21T09:00:34;8.67;;;7.10;;
13197;SDS011;6664;52.514;13.440;2022-07-21T09:06:00;7.50;;;6.23;;
13197;SDS011;6664;52.514;13.440;2022-07-21T09:08:34;7.67;;;6.80;;
13197;SDS011;6664;52.514;13.440;2022-07-21T09:11:07;8.33;;;6.53;;
13197;SDS011;6664;52.514;13.440;2022-07-21T09:13:37;6.93;;;6.23;;
13197;SDS011;6664;52.514;13.440;2022-07-21T09:16:04;11.07;;;6.20;;
13197;SDS011;6664;52.514;13.440;2022-07-21T09:18:31;12.53;;;6.70;;
13197;SDS011;6664;52.514;13.440;2022-07-21T09:21:01;15.80;;;5.77;;
13197;SDS011;6664;52.514;13.440;2022-07-21T09:23:28;6.70;;;5.30;;
13197;SDS011;6664;52.514;13.440;2022-07-21T09:25:56;6.50;;;5.60;;
13197;SDS011;6664;52.514;13.440;2022-07-21T09:28:26;6.93;;;5.63;;
13197;SDS011;6664;52.514;13.440;2022-07-21T09:31:06;10.20;;;5.90;;
13197;SDS011;6664;52.514;13.440;2022-07-21T09:33:36;6.50;;;5.90;;
13197;SDS011;6664;52.514;13.440;2022-07-21T09:36:16;7.27;;;5.40;;
13197;SDS011;6664;52.514;13.440;2022-07-21T09:38:51;5.90;;;5.17;;
13197;SDS011;6664;52.514;13.440;2022-07-21T09:41:23;5.80;;;4.80;;
13197;SDS011;6664;52.514;13.440;2022-07-21T09:43:52;8.13;;;5.10;;
13197;SDS011;6664;52.514;13.440;2022-07-21T09:46:24;5.40;;;5.00;;
13197;SDS011;6664;52.514;13.440;2022-07-21T09:48:56;6.20;;;4.83;;
13197;SDS011;6664;52.514;13.440;2022-07-21T09:51:50;5.40;;;4.73;;
13197;SDS011;6664;52.514;13.440;2022-07-21T09:54:17;8.63;;;4.87;;
13197;SDS011;6664;52.514;13.440;2022-07-21T09:56:46;7.83;;;5.23;;
13197;SDS011;6664;52.514;13.440;2022-07-21T09:59:13;7.97;;;4.93;;
13197;SDS011;6664;52.514;13.440;2022-07-21T10:01:43;4.53;;;3.60;;
13197;SDS011;6664;52.514;13.440;2022-07-21T10:04:13;6.00;;;4.00;;
13197;SDS011;6664;52.514;13.440;2022-07-21T10:06:40;6.43;;;4.17;;
13197;SDS011;6664;52.514;13.440;2022-07-21T10:09:08;11.43;;;3.60;;
13197;SDS011;6664;52.514;13.440;2022-07-21T10:11:40;5.13;;;3.90;;
13197;SDS011;6664;52.514;13.440;2022-07-21T10:14:11;17.37;;;4.83;;
13197;SDS011;6664;52.514;13.440;2022-07-21T10:16:41;5.60;;;3.97;;
13197;SDS011;6664;52.514;13.440;2022-07-21T10:24:30;4.40;;;4.00;;
13197;SDS011;6664;52.514;13.440;2022-07-21T10:27:08;4.97;;;3.77;;
13197;SDS011;6664;52.514;13.440;2022-07-21T10:29:53;6.90;;;4.30;;
13197;SDS011;6664;52.514;13.440;2022-07-21T10:32:35;4.00;;;3.70;;
13197;SDS011;6664;52.514;13.440;2022-07-21T10:37:55;8.47;;;3.93;;
13197;SDS011;6664;52.514;13.440;2022-07-21T10:45:39;6.13;;;3.77;;
13197;SDS011;6664;52.514;13.440;2022-07-21T10:51:01;4.40;;;4.00;;
13197;SDS011;6664;52.514;13.440;2022-07-21T10:53:42;4.30;;;3.50;;
13197;SDS011;6664;52.514;13.440;2022-07-21T10:56:25;12.20;;;3.90;;
13197;SDS011;6664;52.514;13.440;2022-07-21T10:58:54;7.00;;;3.47;;
13197;SDS011;6664;52.514;13.440;2022-07-21T11:01:22;4.23;;;3.30;;
13197;SDS011;6664;52.514;13.440;2022-07-21T11:06:44;8.63;;;4.33;;
13197;SDS011;6664;52.514;13.440;2022-07-21T11:09:13;5.20;;;4.70;;
13197;SDS011;6664;52.514;13.440;2022-07-21T11:22:00;4.13;;;3.60;;
13197;SDS011;6664;52.514;13.440;2022-07-21T11:24:38;3.50;;;3.20;;
13197;SDS011;6664;52.514;13.440;2022-07-21T11:27:10;6.37;;;4.03;;
13197;SDS011;6664;52.514;13.440;2022-07-21T11:29:40;3.43;;;3.20;;
13197;SDS011;6664;52.514;13.440;2022-07-21T11:32:09;5.17;;;3.43;;
13197;SDS011;6664;52.514;13.440;2022-07-21T11:37:06;3.30;;;3.00;;
13197;SDS011;6664;52.514;13.440;2022-07-21T11:39:55;4.80;;;3.43;;
13197;SDS011;6664;52.514;13.440;2022-07-21T11:42:22;5.07;;;3.70;;
13197;SDS011;6664;52.514;13.440;2022-07-21T11:44:57;3.00;;;2.80;;
13197;SDS011;6664;52.514;13.440;2022-07-21T11:47:24;4.50;;;3.40;;
13197;SDS011;6664;52.514;13.440;2022-07-21T11:49:52;3.60;;;3.13;;
13197;SDS011;6664;52.514;13.440;2022-07-21T11:52:24;7.43;;;3.87;;
13197;SDS011;6664;52.514;13.440;2022-07-21T11:54:55;3.67;;;3.37;;
13197;SDS011;6664;52.514;13.440;2022-07-21T11:57:24;6.07;;;4.03;;
13197;SDS011;6664;52.514;13.440;2022-07-21T11:59:59;5.33;;;3.50;;
13197;SDS011;6664;52.514;13.440;2022-07-21T12:02:34;6.80;;;3.03;;
13197;SDS011;6664;52.514;13.440;2022-07-21T12:05:02;5.40;;;3.50;;
13197;SDS011;6664;52.514;13.440;2022-07-21T12:10:15;4.90;;;3.47;;
13197;SDS011;6664;52.514;13.440;2022-07-21T12:12:49;3.83;;;3.47;;
13197;SDS011;6664;52.514;13.440;2022-07-21T12:15:22;6.70;;;3.40;;
13197;SDS011;6664;52.514;13.440;2022-07-21T12:17:59;6.40;;;4.20;;
13197;SDS011;6664;52.514;13.440;2022-07-21T12:20:36;4.20;;;3.40;;
13197;SDS011;6664;52.514;13.440;2022-07-21T12:25:55;4.10;;;3.70;;
13197;SDS011;6664;52.514;13.440;2022-07-21T12:28:42;5.90;;;3.40;;
13197;SDS011;6664;52.514;13.440;2022-07-21T12:31:14;7.00;;;3.57;;
13197;SDS011;6664;52.514;13.440;2022-07-21T12:33:47;4.80;;;3.60;;
13197;SDS011;6664;52.514;13.440;2022-07-21T12:36:34;4.63;;;3.57;;
13197;SDS011;6664;52.514;13.440;2022-07-21T12:39:16;7.70;;;4.10;;
13197;SDS011;6664;52.514;13.440;2022-07-21T12:42:07;4.37;;;3.57;;
13197;SDS011;6664;52.514;13.440;2022-07-21T12:44:35;5.27;;;3.33;;
13197;SDS011;6664;52.514;13.440;2022-07-21T12:47:13;7.90;;;3.87;;
13197;SDS011;6664;52.514;13.440;2022-07-21T12:49:56;7.37;;;4.10;;
13197;SDS011;6664;52.514;13.440;2022-07-21T12:52:41;6.67;;;3.47;;
13197;SDS011;6664;52.514;13.440;2022-07-21T12:55:08;13.33;;;4.07;;
13197;SDS011;6664;52.514;13.440;2022-07-21T12:57:40;7.70;;;4.20;;
13197;SDS011;6664;52.514;13.440;2022-07-21T13:00:07;4.80;;;3.77;;
13197;SDS011;6664;52.514;13.440;2022-07-21T13:02:45;4.43;;;3.90;;
13197;SDS011;6664;52.514;13.440;2022-07-21T13:05:20;3.73;;;3.40;;
13197;SDS011;6664;52.514;13.440;2022-07-21T13:07:48;5.40;;;3.80;;
13197;SDS011;6664;52.514;13.440;2022-07-21T13:10:16;3.30;;;3.10;;
13197;SDS011;6664;52.514;13.440;2022-07-21T13:12:48;4.90;;;3.67;;
13197;SDS011;6664;52.514;13.440;2022-07-21T13:15:15;4.80;;;3.30;;
13197;SDS011;6664;52.514;13.440;2022-07-21T13:17:43;3.80;;;3.50;;
13197;SDS011;6664;52.514;13.440;2022-07-21T13:20:11;3.83;;;3.50;;
13197;SDS011;6664;52.514;13.440;2022-07-21T13:22:39;17.13;;;4.07;;
13197;SDS011;6664;52.514;13.440;2022-07-21T13:25:06;3.80;;;3.47;;
13197;SDS011;6664;52.514;13.440;2022-07-21T13:27:35;5.13;;;3.30;;
13197;SDS011;6664;52.514;13.440;2022-07-21T13:30:05;6.60;;;3.90;;
13197;SDS011;6664;52.514;13.440;2022-07-21T13:32:33;3.10;;;2.90;;
13197;SDS011;6664;52.514;13.440;2022-07-21T13:35:02;11.73;;;3.50;;
13197;SDS011;6664;52.514;13.440;2022-07-21T13:37:49;5.80;;;4.23;;
13197;SDS011;6664;52.514;13.440;2022-07-21T13:40:16;5.20;;;3.57;;
13197;SDS011;6664;52.514;13.440;2022-07-21T13:43:06;4.03;;;3.60;;
13197;SDS011;6664;52.514;13.440;2022-07-21T13:45:55;4.70;;;3.67;;
13197;SDS011;6664;52.514;13.440;2022-07-21T13:48:24;3.17;;;2.90;;
13197;SDS011;6664;52.514;13.440;2022-07-21T13:50:51;4.50;;;4.10;;
13197;SDS011;6664;52.514;13.440;2022-07-21T13:53:18;4.10;;;3.53;;
13197;SDS011;6664;52.514;13.440;2022-07-21T13:55:47;13.40;;;4.60;;
13197;SDS011;6664;52.514;13.440;2022-07-21T13:58:14;4.10;;;3.70;;
13197;SDS011;6664;52.514;13.440;2022-07-21T14:00:40;3.83;;;3.53;;
13197;SDS011;6664;52.514;13.440;2022-07-21T14:03:10;5.33;;;4.83;;
13197;SDS011;6664;52.514;13.440;2022-07-21T14:05:36;4.47;;;4.07;;
13197;SDS011;6664;52.514;13.440;2022-07-21T14:08:04;3.63;;;3.30;;
13197;SDS011;6664;52.514;13.440;2022-07-21T14:10:33;4.27;;;3.87;;
13197;SDS011;6664;52.514;13.440;2022-07-21T14:13:04;3.90;;;3.23;;
13197;SDS011;6664;52.514;13.440;2022-07-21T14:15:31;6.20;;;3.47;;
13197;SDS011;6664;52.514;13.440;2022-07-21T14:18:03;3.47;;;3.17;;
13197;SDS011;6664;52.514;13.440;2022-07-21T14:20:32;3.80;;;3.40;;
13197;SDS011;6664;52.514;13.440;2022-07-21T14:22:59;3.70;;;3.00;;
13197;SDS011;6664;52.514;13.440;2022-07-21T14:25:26;3.40;;;3.10;;
13197;SDS011;6664;52.514;13.440;2022-07-21T14:27:55;3.17;;;2.87;;
13197;SDS011;6664;52.514;13.440;2022-07-21T14:30:26;3.60;;;3.30;;
13197;SDS011;6664;52.514;13.440;2022-07-21T14:32:54;3.87;;;3.57;;
13197;SDS011;6664;52.514;13.440;2022-07-21T14:35:21;4.00;;;3.40;;
13197;SDS011;6664;52.514;13.440;2022-07-21T14:37:53;4.80;;;3.33;;
13197;SDS011;6664;52.514;13.440;2022-07-21T14:40:20;3.30;;;3.00;;
13197;SDS011;6664;52.514;13.440;2022-07-21T14:42:48;4.20;;;3.80;;
13197;SDS011;6664;52.514;13.440;2022-07-21T14:45:18;4.00;;;3.60;;
13197;SDS011;6664;52.514;13.440;2022-07-21T14:47:49;3.27;;;2.97;;
13197;SDS011;6664;52.514;13.440;2022-07-21T14:50:18;2.90;;;2.60;;
13197;SDS011;6664;52.514;13.440;2022-07-21T14:52:55;3.80;;;3.10;;
13197;SDS011;6664;52.514;13.440;2022-07-21T14:55:23;3.50;;;3.20;;
13197;SDS011;6664;52.514;13.440;2022-07-21T14:57:51;3.00;;;2.80;;
13197;SDS011;6664;52.514;13.440;2022-07-21T15:00:19;3.00;;;2.80;;
13197;SDS011;6664;52.514;13.440;2022-07-21T15:02:47;3.40;;;3.20;;
13197;SDS011;6664;52.514;13.440;2022-07-21T15:05:14;3.73;;;3.43;;
13197;SDS011;6664;52.514;13.440;2022-07-21T15:07:41;3.67;;;3.37;;
13197;SDS011;6664;52.514;13.440;2022-07-21T15:10:08;7.77;;;3.60;;
13197;SDS011;6664;52.514;13.440;2022-07-21T15:12:35;3.27;;;2.97;;
13197;SDS011;6664;52.514;13.440;2022-07-21T15:15:02;2.97;;;2.70;;
13197;SDS011;6664;52.514;13.440;2022-07-21T15:17:33;3.23;;;3.03;;
13197;SDS011;6664;52.514;13.440;2022-07-21T15:20:00;3.20;;;2.90;;
13197;SDS011;6664;52.514;13.440;2022-07-21T15:22:27;4.30;;;4.00;;
13197;SDS011;6664;52.514;13.440;2022-07-21T15:24:57;4.20;;;3.80;;
13197;SDS011;6664;52.514;13.440;2022-07-21T15:27:25;5.33;;;4.27;;
13197;SDS011;6664;52.514;13.440;2022-07-21T15:29:55;3.87;;;3.53;;
13197;SDS011;6664;52.514;13.440;2022-07-21T15:32:22;4.17;;;3.87;;
13197;SDS011;6664;52.514;13.440;2022-07-21T15:34:49;4.60;;;4.20;;
13197;SDS011;6664;52.514;13.440;2022-07-21T15:37:16;3.70;;;3.40;;